createdAt,value
2023-06-17T00:02:10.364Z,19.13
2023-06-17T00:04:38.372Z,18.13
2023-06-17T00:07:06.919Z,17.08
2023-06-17T00:09:36.259Z,19.92
2023-06-17T00:12:04.527Z,16.63
2023-06-17T00:14:33.763Z,16.25
2023-06-17T00:17:01.944Z,18.83
2023-06-17T00:19:30.161Z,20.70
2023-06-17T00:21:58.223Z,20.35
2023-06-17T00:24:26.275Z,19.58
2023-06-17T00:26:55.698Z,17.27
2023-06-17T00:29:24.464Z,17.00
2023-06-17T00:31:52.515Z,15.32
2023-06-17T00:34:20.546Z,17.15
2023-06-17T00:36:48.535Z,18.85
2023-06-17T00:39:16.627Z,19.15
2023-06-17T00:41:44.631Z,20.17
2023-06-17T00:44:13.986Z,20.52
2023-06-17T00:46:43.633Z,18.00
2023-06-17T00:49:12.480Z,21.23
2023-06-17T00:51:41.116Z,16.80
2023-06-17T00:54:09.983Z,20.10
2023-06-17T00:56:39.547Z,17.25
2023-06-17T00:59:09.428Z,19.65
2023-06-17T01:01:38.813Z,17.92
2023-06-17T01:04:07.939Z,19.27
2023-06-17T01:06:43.893Z,19.02
2023-06-17T01:09:17.040Z,16.50
2023-06-17T01:11:46.706Z,19.40
2023-06-17T01:14:15.656Z,16.92
2023-06-17T01:16:46.073Z,17.52
2023-06-17T01:19:20.411Z,17.52
2023-06-17T01:21:50.640Z,16.30
2023-06-17T01:24:28.491Z,14.90
2023-06-17T01:26:58.278Z,15.30
2023-06-17T01:29:27.489Z,16.13
2023-06-17T01:31:58.889Z,13.77
2023-06-17T01:34:34.179Z,15.23
2023-06-17T01:37:05.584Z,14.63
2023-06-17T01:39:37.875Z,15.48
2023-06-17T01:42:10.587Z,18.13
2023-06-17T01:44:40.957Z,19.08
2023-06-17T01:47:10.913Z,15.75
2023-06-17T01:49:39.412Z,17.33
2023-06-17T01:52:10.606Z,18.90
2023-06-17T01:54:40.064Z,16.13
2023-06-17T01:57:08.950Z,18.77
2023-06-17T01:59:36.952Z,16.58
2023-06-17T02:02:05.210Z,16.65
2023-06-17T02:04:33.172Z,18.55
2023-06-17T02:07:01.208Z,19.58
2023-06-17T02:09:29.281Z,18.75
2023-06-17T02:11:59.627Z,17.42
2023-06-17T02:14:27.640Z,20.58
2023-06-17T02:16:57.191Z,18.50
2023-06-17T02:19:25.169Z,18.98
2023-06-17T02:21:53.215Z,19.38
2023-06-17T02:24:22.341Z,19.73
2023-06-17T02:26:50.864Z,17.70
2023-06-17T02:29:20.268Z,23.25
2023-06-17T02:31:48.348Z,21.13
2023-06-17T02:34:16.714Z,22.05
2023-06-17T02:36:44.711Z,25.10
2023-06-17T02:39:13.071Z,22.20
2023-06-17T02:41:41.292Z,20.30
2023-06-17T02:44:09.372Z,25.42
2023-06-17T02:46:38.786Z,20.33
2023-06-17T02:49:06.813Z,21.23
2023-06-17T02:51:35.281Z,22.33
2023-06-17T02:54:03.310Z,26.95
2023-06-17T02:56:31.309Z,25.35
2023-06-17T02:58:59.541Z,24.48
2023-06-17T03:01:27.629Z,20.60
2023-06-17T03:03:57.128Z,25.02
2023-06-17T03:06:25.126Z,20.40
2023-06-17T03:08:53.117Z,26.33
2023-06-17T03:11:21.132Z,27.52
2023-06-17T03:13:49.162Z,22.80
2023-06-17T03:16:18.308Z,22.13
2023-06-17T03:18:46.420Z,24.25
2023-06-17T03:21:16.101Z,23.00
2023-06-17T03:23:44.206Z,22.92
2023-06-17T03:26:12.181Z,24.05
2023-06-17T03:28:40.179Z,22.33
2023-06-17T03:31:08.264Z,20.23
2023-06-17T03:33:36.276Z,23.70
2023-06-17T03:36:04.292Z,25.48
2023-06-17T03:38:33.682Z,23.60
2023-06-17T03:41:01.700Z,23.52
2023-06-17T03:43:29.748Z,26.63
2023-06-17T03:45:57.728Z,26.85
2023-06-17T03:48:25.893Z,28.95
2023-06-17T03:50:53.897Z,30.60
2023-06-17T03:53:21.930Z,31.70
2023-06-17T03:55:51.352Z,32.72
2023-06-17T03:58:19.425Z,36.85
2023-06-17T04:00:48.963Z,38.13
2023-06-17T04:03:17.447Z,41.47
2023-06-17T04:05:45.884Z,36.15
2023-06-17T04:08:13.902Z,38.95
2023-06-17T04:10:42.396Z,47.38
2023-06-17T04:13:12.131Z,40.42
2023-06-17T04:15:40.110Z,37.95
2023-06-17T04:18:08.180Z,42.05
2023-06-17T04:20:36.899Z,44.05
2023-06-17T04:23:05.155Z,42.25
2023-06-17T04:25:37.857Z,40.03
2023-06-17T04:28:08.239Z,43.92
2023-06-17T04:30:38.983Z,42.70
2023-06-17T04:33:07.602Z,40.65
2023-06-17T04:35:36.535Z,42.28
2023-06-17T04:38:04.577Z,43.08
2023-06-17T04:40:33.286Z,41.85
2023-06-17T04:43:02.301Z,46.60
2023-06-17T04:45:30.573Z,39.80
2023-06-17T04:48:00.046Z,42.95
2023-06-17T04:50:30.494Z,39.28
2023-06-17T04:53:04.789Z,41.40
2023-06-17T04:55:36.494Z,39.80
2023-06-17T04:58:05.714Z,40.03
2023-06-17T05:00:33.859Z,40.42
2023-06-17T05:03:03.331Z,44.17
2023-06-17T05:05:31.379Z,40.95
2023-06-17T05:07:59.339Z,39.60
2023-06-17T05:10:27.368Z,40.90
2023-06-17T05:12:55.593Z,46.15
2023-06-17T05:15:23.585Z,38.67
2023-06-17T05:17:51.937Z,38.45
2023-06-17T05:20:21.618Z,36.97
2023-06-17T05:22:49.741Z,41.70
2023-06-17T05:25:17.772Z,42.60
2023-06-17T05:27:45.771Z,42.60
2023-06-17T05:30:14.058Z,37.47
2023-06-17T05:32:42.100Z,37.85
2023-06-17T05:35:10.428Z,37.22
2023-06-17T05:37:39.809Z,38.00
2023-06-17T05:40:08.880Z,43.78
2023-06-17T05:42:36.864Z,37.95
2023-06-17T05:45:05.203Z,42.55
2023-06-17T05:47:33.344Z,39.25
2023-06-17T05:50:01.416Z,37.35
2023-06-17T05:52:29.445Z,41.20
2023-06-17T05:54:58.769Z,40.20
2023-06-17T05:57:26.848Z,38.30
2023-06-17T05:59:54.869Z,38.17
2023-06-17T06:02:22.969Z,36.35
2023-06-17T06:04:51.052Z,32.85
2023-06-17T06:07:19.072Z,35.70
2023-06-17T06:09:47.559Z,30.95
2023-06-17T06:12:17.172Z,34.35
2023-06-17T06:14:45.556Z,36.67
2023-06-17T06:17:13.553Z,32.20
2023-06-17T06:19:41.588Z,34.92
2023-06-17T06:22:09.613Z,29.35
2023-06-17T06:24:37.706Z,30.33
2023-06-17T06:27:06.291Z,27.33
2023-06-17T06:29:35.764Z,27.88
2023-06-17T06:32:03.942Z,26.58
2023-06-17T06:34:31.997Z,26.15
2023-06-17T06:36:59.996Z,27.35
2023-06-17T06:39:28.387Z,30.48
2023-06-17T06:41:57.261Z,24.65
2023-06-17T06:44:25.244Z,25.60
2023-06-17T06:46:56.563Z,24.73
2023-06-17T06:49:24.640Z,24.80
2023-06-17T06:51:52.630Z,24.80
2023-06-17T06:54:20.624Z,25.13
2023-06-17T06:56:48.616Z,22.83
2023-06-17T06:59:17.283Z,23.50
2023-06-17T07:01:45.332Z,22.27
2023-06-17T07:04:14.807Z,23.52
2023-06-17T07:06:42.849Z,24.02
2023-06-17T07:09:10.830Z,24.38
2023-06-17T07:11:38.876Z,23.73
2023-06-17T07:14:07.084Z,22.98
2023-06-17T07:16:35.198Z,19.88
2023-06-17T07:19:03.203Z,19.13
2023-06-17T07:21:32.581Z,19.45
2023-06-17T07:24:00.711Z,22.08
2023-06-17T07:26:28.757Z,19.08
2023-06-17T07:28:56.814Z,23.17
2023-06-17T07:31:25.374Z,18.70
2023-06-17T07:33:59.548Z,22.73
2023-06-17T07:36:28.246Z,18.85
2023-06-17T07:38:58.405Z,19.85
2023-06-17T07:41:26.432Z,19.52
2023-06-17T07:43:54.418Z,20.10
2023-06-17T07:46:22.464Z,18.58
2023-06-17T07:48:50.469Z,16.77
2023-06-17T07:51:18.496Z,17.15
2023-06-17T07:53:46.559Z,16.42
2023-06-17T07:56:15.981Z,15.32
2023-06-17T07:58:45.175Z,13.68
2023-06-17T08:01:13.207Z,16.60
2023-06-17T08:03:41.259Z,16.67
2023-06-17T08:06:09.420Z,16.15
2023-06-17T08:08:37.437Z,15.98
2023-06-17T08:11:05.413Z,17.17
2023-06-17T08:13:34.790Z,18.13
2023-06-17T08:16:03.066Z,14.13
2023-06-17T08:18:31.148Z,13.30
2023-06-17T08:20:59.188Z,14.68
2023-06-17T08:23:27.722Z,12.40
2023-06-17T08:25:55.700Z,12.38
2023-06-17T08:28:23.747Z,12.80
2023-06-17T08:30:53.288Z,16.05
2023-06-17T08:33:21.462Z,13.38
2023-06-17T08:35:49.458Z,13.55
2023-06-17T08:38:18.401Z,13.23
2023-06-17T08:40:47.380Z,12.35
2023-06-17T08:43:19.753Z,12.20
2023-06-17T08:45:50.756Z,11.60
2023-06-17T08:48:20.551Z,11.60
2023-06-17T08:50:50.297Z,11.57
2023-06-17T08:53:19.002Z,11.57
2023-06-17T08:55:47.823Z,9.02
2023-06-17T08:58:15.871Z,10.63
2023-06-17T09:00:43.896Z,9.25
2023-06-17T09:03:13.090Z,10.80
2023-06-17T09:05:42.446Z,12.50
2023-06-17T09:08:10.612Z,15.35
2023-06-17T09:10:45.827Z,15.52
2023-06-17T09:13:13.914Z,9.93
2023-06-17T09:15:43.606Z,10.88
2023-06-17T09:18:11.743Z,9.88
2023-06-17T09:20:39.781Z,8.68
2023-06-17T09:23:18.586Z,9.60
2023-06-17T09:25:46.720Z,12.63
2023-06-17T09:28:17.213Z,9.63
2023-06-17T09:30:45.703Z,8.20
2023-06-17T09:33:20.508Z,8.88
2023-06-17T09:35:49.120Z,9.18
2023-06-17T09:38:19.545Z,8.55
2023-06-17T09:40:50.565Z,7.80
2023-06-17T09:45:51.367Z,7.07
2023-06-17T09:48:21.782Z,6.78
2023-06-17T09:50:56.968Z,8.57
2023-06-17T09:53:28.816Z,9.05
2023-06-17T09:55:58.468Z,6.68
2023-06-17T09:58:30.411Z,6.97
2023-06-17T10:01:01.558Z,8.10
2023-06-17T10:03:30.145Z,7.30
2023-06-17T10:06:04.236Z,8.43
2023-06-17T10:08:37.068Z,6.80
2023-06-17T10:11:05.265Z,6.10
2023-06-17T10:13:37.373Z,5.93
2023-06-17T10:16:06.960Z,6.38
2023-06-17T10:18:38.244Z,7.78
2023-06-17T10:21:08.401Z,8.35
2023-06-17T10:23:38.920Z,7.97
2023-06-17T10:26:08.065Z,6.20
2023-06-17T10:28:46.903Z,6.93
2023-06-17T10:31:31.055Z,11.00
2023-06-17T10:34:02.868Z,7.10
2023-06-17T10:36:30.938Z,8.02
2023-06-17T10:39:05.199Z,7.85
2023-06-17T10:41:56.969Z,7.18
2023-06-17T10:44:43.377Z,6.82
2023-06-17T10:47:20.983Z,6.28
2023-06-17T10:49:50.370Z,6.78
2023-06-17T10:52:18.965Z,6.47
2023-06-17T10:54:53.242Z,6.85
2023-06-17T10:57:34.861Z,7.72
2023-06-17T11:00:08.207Z,6.68
2023-06-17T11:02:37.341Z,11.40
2023-06-17T11:05:06.564Z,12.45
2023-06-17T11:07:34.998Z,7.38
2023-06-17T11:10:04.867Z,7.35
2023-06-17T11:12:35.470Z,7.75
2023-06-17T11:15:05.518Z,8.98
2023-06-17T11:17:33.633Z,15.85
2023-06-17T11:20:01.734Z,10.55
2023-06-17T11:22:30.063Z,17.10
2023-06-17T11:24:59.410Z,8.52
2023-06-17T11:27:30.286Z,9.32
2023-06-17T11:29:58.474Z,11.18
2023-06-17T11:32:26.845Z,9.82
2023-06-17T11:34:54.956Z,9.63
2023-06-17T11:37:23.687Z,10.93
2023-06-17T11:39:51.670Z,11.68
2023-06-17T11:42:19.706Z,16.20
2023-06-17T11:44:50.532Z,10.02
2023-06-17T11:47:18.576Z,11.02
2023-06-17T11:49:46.639Z,11.35
2023-06-17T11:52:15.262Z,8.00
2023-06-17T11:54:49.842Z,9.00
2023-06-17T11:57:22.536Z,12.05
2023-06-17T11:59:52.885Z,9.70
2023-06-17T12:02:21.579Z,7.88
2023-06-17T12:04:50.093Z,13.70
2023-06-17T12:07:18.109Z,9.73
2023-06-17T12:09:54.359Z,9.55
2023-06-17T12:12:33.520Z,7.18
2023-06-17T12:15:15.017Z,7.35
2023-06-17T12:17:46.090Z,7.07
2023-06-17T12:20:16.362Z,6.97
2023-06-17T12:22:44.906Z,8.15
2023-06-17T12:25:13.547Z,7.40
2023-06-17T12:27:43.603Z,7.20
2023-06-17T12:30:15.198Z,6.90
2023-06-17T12:32:44.169Z,6.55
2023-06-17T12:35:18.175Z,9.00
2023-06-17T12:37:48.025Z,7.47
2023-06-17T12:40:16.048Z,9.68
2023-06-17T12:42:44.376Z,7.05
2023-06-17T12:45:14.294Z,6.60
2023-06-17T12:47:43.125Z,10.18
2023-06-17T12:50:12.403Z,7.13
2023-06-17T12:52:40.627Z,7.85
2023-06-17T12:55:10.002Z,8.60
2023-06-17T12:57:38.064Z,8.10
2023-06-17T13:00:07.555Z,9.65
2023-06-17T13:02:37.719Z,7.70
2023-06-17T13:05:06.479Z,8.02
2023-06-17T13:07:34.847Z,9.68
2023-06-17T13:10:02.995Z,7.38
2023-06-17T13:12:31.040Z,8.82
2023-06-17T13:14:59.064Z,7.22
2023-06-17T13:17:27.127Z,6.75
2023-06-17T13:19:56.526Z,7.93
2023-06-17T13:22:25.839Z,6.70
2023-06-17T13:24:54.342Z,7.53
2023-06-17T13:27:22.414Z,6.63
2023-06-17T13:29:50.385Z,7.07
2023-06-17T13:32:19.909Z,7.35
2023-06-17T13:34:48.014Z,6.75
2023-06-17T13:37:17.485Z,9.55
2023-06-17T13:39:46.055Z,7.22
2023-06-17T13:42:14.076Z,6.75
2023-06-17T13:44:45.645Z,9.65
2023-06-17T13:47:15.843Z,9.48
2023-06-17T13:49:44.375Z,7.03
2023-06-17T13:52:14.054Z,7.97
2023-06-17T13:54:43.435Z,6.68
2023-06-17T13:57:12.901Z,6.43
2023-06-17T13:59:42.354Z,6.30
2023-06-17T14:02:10.806Z,8.85
2023-06-17T14:04:38.926Z,8.50
2023-06-17T14:07:07.622Z,10.05
2023-06-17T14:09:35.618Z,7.68
2023-06-17T14:12:05.270Z,8.27
2023-06-17T14:14:33.295Z,8.18
2023-06-17T14:17:01.348Z,8.10
2023-06-17T14:19:30.367Z,7.85
2023-06-17T14:22:01.894Z,7.75
2023-06-17T14:24:29.986Z,6.85
2023-06-17T14:27:11.088Z,6.22
2023-06-17T14:29:39.368Z,6.40
2023-06-17T14:32:08.116Z,7.22
2023-06-17T14:34:36.311Z,7.50
2023-06-17T14:37:04.452Z,6.65
2023-06-17T14:39:33.207Z,11.13
2023-06-17T14:42:01.352Z,6.00
2023-06-17T14:44:30.757Z,6.40
2023-06-17T14:46:58.827Z,7.18
2023-06-17T14:49:26.873Z,6.70
2023-06-17T14:51:54.879Z,5.75
2023-06-17T14:54:22.873Z,6.47
2023-06-17T14:56:50.859Z,6.65
2023-06-17T14:59:18.961Z,9.60
2023-06-17T15:01:48.336Z,7.50
2023-06-17T15:04:16.476Z,11.95
2023-06-17T15:06:44.517Z,9.27
2023-06-17T15:09:26.510Z,8.00
2023-06-17T15:11:56.388Z,7.93
2023-06-17T15:14:25.122Z,8.23
2023-06-17T15:16:54.568Z,9.30
2023-06-17T15:19:22.845Z,8.75
2023-06-17T15:21:50.864Z,12.30
2023-06-17T15:24:19.229Z,8.48
2023-06-17T15:26:48.198Z,9.00
2023-06-17T15:29:16.752Z,8.05
2023-06-17T15:31:45.363Z,8.13
2023-06-17T15:34:14.845Z,8.48
2023-06-17T15:36:42.977Z,9.10
2023-06-17T15:39:19.334Z,8.38
2023-06-17T15:41:47.740Z,8.00
2023-06-17T15:44:16.710Z,9.35
2023-06-17T15:46:45.242Z,7.47
2023-06-17T15:49:14.713Z,9.38
2023-06-17T15:51:42.703Z,8.02
2023-06-17T15:54:11.456Z,8.00
2023-06-17T15:56:40.519Z,8.73
2023-06-17T15:59:08.574Z,9.20
2023-06-17T16:01:36.569Z,8.00
2023-06-17T16:04:34.765Z,7.80
2023-06-17T16:07:03.934Z,9.43
2023-06-17T16:09:33.405Z,8.40
2023-06-17T16:12:01.826Z,8.20
2023-06-17T16:14:31.457Z,10.07
2023-06-17T16:16:59.492Z,7.90
2023-06-17T16:19:27.622Z,11.38
2023-06-17T16:21:57.055Z,9.40
2023-06-17T16:24:25.139Z,8.10
2023-06-17T16:26:53.185Z,10.07
2023-06-17T16:29:21.581Z,8.48
2023-06-17T16:31:49.941Z,10.48
2023-06-17T16:34:18.212Z,8.00
2023-06-17T16:36:46.384Z,8.73
2023-06-17T16:39:16.125Z,7.93
2023-06-17T16:41:44.124Z,9.50
2023-06-17T16:44:12.170Z,8.10
2023-06-17T16:46:41.306Z,7.20
2023-06-17T16:49:09.284Z,9.15
2023-06-17T16:51:37.436Z,9.43
2023-06-17T16:54:06.558Z,7.55
2023-06-17T16:56:36.242Z,7.70
2023-06-17T16:59:04.464Z,9.90
2023-06-17T17:01:32.776Z,10.98
2023-06-17T17:04:02.252Z,8.73
2023-06-17T17:06:30.708Z,8.05
2023-06-17T17:08:58.723Z,7.47
2023-06-17T17:11:26.779Z,7.60
2023-06-17T17:13:56.353Z,8.20
2023-06-17T17:16:24.543Z,7.53
2023-06-17T17:18:52.590Z,8.98
2023-06-17T17:21:20.756Z,7.95
2023-06-17T17:23:48.893Z,8.57
2023-06-17T17:26:17.003Z,7.72
2023-06-17T17:28:44.996Z,7.60
2023-06-17T17:31:14.422Z,8.02
2023-06-17T17:33:44.407Z,7.28
2023-06-17T17:36:13.934Z,7.65
2023-06-17T17:38:42.537Z,6.80
2023-06-17T17:41:10.648Z,7.60
2023-06-17T17:43:39.372Z,7.40
2023-06-17T17:46:10.339Z,8.02
2023-06-17T17:48:40.139Z,6.78
2023-06-17T17:51:08.138Z,7.43
2023-06-17T17:53:37.296Z,7.47
2023-06-17T17:56:05.681Z,8.35
2023-06-17T17:58:33.720Z,7.22
2023-06-17T18:01:03.140Z,8.35
2023-06-17T18:03:31.453Z,8.00
2023-06-17T18:06:01.017Z,9.20
2023-06-17T18:08:29.031Z,8.15
2023-06-17T18:10:57.071Z,9.48
2023-06-17T18:13:25.225Z,8.45
2023-06-17T18:15:53.289Z,8.15
2023-06-17T18:18:21.428Z,7.85
2023-06-17T18:20:49.409Z,7.35
2023-06-17T18:23:18.967Z,7.90
2023-06-17T18:25:46.946Z,8.55
2023-06-17T18:28:15.134Z,8.15
2023-06-17T18:30:43.189Z,9.20
2023-06-17T18:33:11.255Z,8.15
2023-06-17T18:35:39.280Z,9.70
2023-06-17T18:38:09.355Z,9.23
2023-06-17T18:40:39.017Z,7.90
2023-06-17T18:43:08.466Z,8.32
2023-06-17T18:45:36.798Z,8.27
2023-06-17T18:48:05.287Z,9.70
2023-06-17T18:50:33.319Z,8.00
2023-06-17T18:53:01.377Z,10.55
2023-06-17T18:55:31.197Z,8.85
2023-06-17T18:58:00.974Z,8.65
2023-06-17T19:00:32.031Z,8.32
2023-06-17T19:03:00.213Z,18.65
2023-06-17T19:05:28.378Z,9.90
2023-06-17T19:07:56.472Z,9.00
2023-06-17T19:10:24.536Z,8.73
2023-06-17T19:12:52.967Z,7.95
2023-06-17T19:15:22.829Z,8.80
2023-06-17T19:17:50.864Z,9.43
2023-06-17T19:20:19.260Z,9.27
2023-06-17T19:22:47.367Z,9.65
2023-06-17T19:25:16.064Z,8.70
2023-06-17T19:27:44.046Z,9.40
2023-06-17T19:30:12.635Z,10.45
2023-06-17T19:32:41.997Z,10.20
2023-06-17T19:35:10.987Z,10.77
2023-06-17T19:37:39.774Z,9.07
2023-06-17T19:40:08.949Z,9.73
2023-06-17T19:42:36.977Z,11.50
2023-06-17T19:45:05.519Z,12.02
2023-06-17T19:47:33.943Z,11.40
2023-06-17T19:50:03.426Z,10.75
2023-06-17T19:52:31.472Z,9.63
2023-06-17T19:54:59.476Z,12.73
2023-06-17T19:57:27.547Z,11.88
2023-06-17T19:59:55.559Z,11.25
2023-06-17T20:02:23.687Z,11.20
2023-06-17T20:04:51.771Z,10.88
2023-06-17T20:07:21.109Z,9.68
2023-06-17T20:09:49.136Z,11.70
2023-06-17T20:12:17.179Z,11.20
2023-06-17T20:14:45.679Z,10.02
2023-06-17T20:17:13.716Z,11.85
2023-06-17T20:19:41.869Z,10.98
2023-06-17T20:22:09.892Z,12.48
2023-06-17T20:24:39.314Z,11.65
2023-06-17T20:27:08.182Z,10.88
2023-06-17T20:29:36.304Z,14.18
2023-06-17T20:32:04.603Z,10.68
2023-06-17T20:34:32.584Z,13.30
2023-06-17T20:37:00.691Z,13.68
2023-06-17T20:39:28.694Z,12.60
2023-06-17T20:41:58.065Z,11.27
2023-06-17T20:44:26.585Z,11.45
2023-06-17T20:47:00.610Z,13.52
2023-06-17T20:49:29.114Z,11.63
2023-06-17T20:51:57.853Z,9.35
2023-06-17T20:54:25.906Z,10.80
2023-06-17T20:56:54.039Z,9.55
2023-06-17T20:59:24.865Z,12.15
2023-06-17T21:01:53.587Z,10.93
2023-06-17T21:04:21.646Z,12.40
2023-06-17T21:06:49.725Z,11.18
2023-06-17T21:09:17.707Z,10.70
2023-06-17T21:11:45.723Z,11.27
2023-06-17T21:14:13.750Z,12.52
2023-06-17T21:16:43.139Z,13.38
2023-06-17T21:19:11.528Z,13.30
2023-06-17T21:21:39.492Z,14.80
2023-06-17T21:24:07.680Z,12.93
2023-06-17T21:26:35.789Z,13.13
2023-06-17T21:29:03.830Z,16.10
2023-06-17T21:31:31.855Z,14.52
2023-06-17T21:34:02.244Z,13.65
2023-06-17T21:36:30.238Z,16.52
2023-06-17T21:38:58.234Z,16.15
2023-06-17T21:41:27.365Z,16.63
2023-06-17T21:43:55.393Z,12.93
2023-06-17T21:46:26.664Z,15.90
2023-06-17T21:48:54.824Z,11.82
2023-06-17T21:51:24.418Z,13.43
2023-06-17T21:53:52.878Z,11.70
2023-06-17T21:56:20.980Z,14.57
2023-06-17T21:58:49.020Z,15.23
2023-06-17T22:01:18.144Z,14.93
2023-06-17T22:03:46.420Z,12.63
2023-06-17T22:06:14.821Z,12.10
2023-06-17T22:08:44.447Z,12.60
2023-06-17T22:11:12.901Z,11.45
2023-06-17T22:13:41.122Z,14.10
2023-06-17T22:16:09.378Z,11.75
2023-06-17T22:18:37.663Z,10.80
2023-06-17T22:21:05.656Z,9.90
2023-06-17T22:23:33.641Z,10.88
2023-06-17T22:26:03.016Z,15.90
2023-06-17T22:28:31.030Z,11.43
2023-06-17T22:30:59.062Z,13.18
2023-06-17T22:33:27.062Z,10.55
2023-06-17T22:35:55.082Z,14.02
2023-06-17T22:38:23.100Z,10.68
2023-06-17T22:40:51.168Z,12.02
2023-06-17T22:43:20.832Z,11.48
2023-06-17T22:45:49.836Z,13.75
2023-06-17T22:48:18.076Z,13.05
2023-06-17T22:50:46.729Z,14.43
2023-06-17T22:53:14.750Z,14.75
2023-06-17T22:55:42.891Z,13.32
2023-06-17T22:58:11.080Z,14.57
2023-06-17T23:00:40.821Z,12.27
2023-06-17T23:03:09.093Z,14.20
2023-06-17T23:05:37.219Z,13.43
2023-06-17T23:08:05.987Z,13.45
2023-06-17T23:10:34.034Z,14.23
2023-06-17T23:13:02.015Z,13.07
2023-06-17T23:15:30.063Z,14.55
2023-06-17T23:17:59.841Z,12.35
2023-06-17T23:20:27.987Z,14.52
2023-06-17T23:22:56.315Z,14.63
2023-06-17T23:25:27.898Z,12.82
2023-06-17T23:27:57.640Z,12.27
2023-06-17T23:30:26.531Z,14.30
2023-06-17T23:32:54.684Z,14.43
2023-06-17T23:35:24.193Z,17.35
2023-06-17T23:37:52.310Z,13.68
2023-06-17T23:40:21.199Z,15.45
2023-06-17T23:42:49.359Z,15.18
2023-06-17T23:45:17.798Z,14.57
2023-06-17T23:47:45.934Z,15.20
2023-06-17T23:50:13.998Z,15.88
2023-06-17T23:52:43.348Z,14.10
2023-06-17T23:55:11.556Z,15.05
2023-06-17T23:57:39.691Z,15.32
